Time;durP1;ratioP1;P1;durP2;ratioP2;P2;SDS_P1;SDS_P2;PMS_P1;PMS_P2;Temp;Humidity;BMP_temperature;BMP_pressure;BME280_temperature;BME280_humidity;BME280_pressure;Samples;Min_cycle;Max_cycle;Signal;HPM_P1;HPM_P2
2023/09/05 00:01:50;;;;;;;3.28;2.97;;;;;;;16.83;75.06;101985.59;7398670;19;20015;-66
2023/09/05 00:04:19;;;;;;;5.30;3.03;;;;;;;16.81;75.34;101990.94;7398301;19;20078;-65
2023/09/05 00:06:50;;;;;;;3.97;3.30;;;;;;;16.77;75.37;101990.16;7398144;19;20365;-66
2023/09/05 00:09:21;;;;;;;3.17;2.88;;;;;;;16.76;75.45;101988.41;7398888;19;20003;-66
2023/09/05 00:11:50;;;;;;;4.25;3.33;;;;;;;16.75;75.38;101986.66;7396406;19;20074;-66
2023/09/05 00:14:20;;;;;;;2.92;2.65;;;;;;;16.74;75.42;101981.41;7396178;19;20371;-66
2023/09/05 00:16:48;;;;;;;4.75;3.38;;;;;;;16.73;75.47;101980.56;7398137;19;20023;-66
2023/09/05 00:19:17;;;;;;;3.17;2.85;;;;;;;16.73;75.23;101984.97;7397933;19;20078;-66
2023/09/05 00:21:45;;;;;;;3.53;3.03;;;;;;;16.71;75.23;101990.31;7397641;19;20086;-65
2023/09/05 00:24:31;;;;;;;3.08;2.78;;;;;;;16.69;75.46;101992.13;7397350;19;20426;-65
2023/09/05 00:27:01;;;;;;;4.53;3.35;;;;;;;16.68;75.39;101985.13;7397659;19;20010;-65
2023/09/05 00:29:30;;;;;;;4.15;2.95;;;;;;;16.66;75.79;101989.56;7397660;19;20018;-66
2023/09/05 00:31:59;;;;;;;3.30;3.00;;;;;;;16.64;75.71;101982.56;7393417;19;20498;-65
2023/09/05 00:34:29;;;;;;;4.53;3.25;;;;;;;16.63;75.61;101983.47;7396166;19;20022;-66
2023/09/05 00:36:58;;;;;;;4.50;3.17;;;;;;;16.60;75.35;101987.09;7397090;19;20011;-66
2023/09/05 00:39:30;;;;;;;4.40;3.03;;;;;;;16.58;75.75;101984.50;7397006;19;20359;-65
2023/09/05 00:41:58;;;;;;;3.80;3.50;;;;;;;16.57;75.76;101984.53;7395991;19;20079;-65
2023/09/05 00:44:27;;;;;;;4.53;3.50;;;;;;;16.55;75.61;101973.94;7395274;19;20022;-66
2023/09/05 00:46:58;;;;;;;3.60;3.30;;;;;;;16.55;75.70;101973.09;7395023;19;20581;-65
2023/09/05 00:49:28;;;;;;;3.60;3.30;;;;;;;16.52;75.94;101979.34;7395697;19;20014;-65
2023/09/05 00:51:59;;;;;;;4.82;3.45;;;;;;;16.51;75.90;101972.31;7397412;19;20022;-65
2023/09/05 00:54:30;;;;;;;7.18;3.50;;;;;;;16.48;75.87;101976.81;7395237;19;20066;-66
2023/09/05 00:56:59;;;;;;;5.53;3.22;;;;;;;16.47;76.22;101965.38;7395601;19;20081;-65
2023/09/05 00:59:28;;;;;;;3.33;3.03;;;;;;;16.45;76.31;101970.72;7395123;19;20098;-65
2023/09/05 01:01:57;;;;;;;5.07;3.58;;;;;;;16.45;76.48;101972.47;7395009;19;20078;-66
2023/09/05 01:04:26;;;;;;;4.95;3.30;;;;;;;16.43;76.24;101953.13;7394851;19;20073;-66
2023/09/05 01:07:03;;;;;;;4.78;3.45;;;;;;;16.42;76.47;101956.69;7394877;19;20082;-65
2023/09/05 01:09:42;;;;;;;5.05;3.70;;;;;;;16.39;76.52;101952.34;7396909;19;20027;-66
2023/09/05 01:12:10;;;;;;;4.03;3.47;;;;;;;16.37;76.64;101956.78;7396845;19;20022;-65
2023/09/05 01:14:39;;;;;;;7.47;3.88;;;;;;;16.36;76.85;101949.75;7395793;19;20070;-65
2023/09/05 01:17:07;;;;;;;4.22;3.83;;;;;;;16.33;76.49;101944.53;7396239;19;20086;-66
2023/09/05 01:19:42;;;;;;;5.07;3.83;;;;;;;16.32;76.65;101940.16;7394436;19;20015;-66
2023/09/05 01:22:20;;;;;;;3.33;3.03;;;;;;;16.30;76.70;101947.25;7394173;19;20073;-65
2023/09/05 01:24:52;;;;;;;3.45;3.03;;;;;;;16.29;76.91;101953.50;7395699;19;20074;-65
2023/09/05 01:27:22;;;;;;;5.03;3.60;;;;;;;16.27;77.09;101948.22;7396506;19;20014;-65
2023/09/05 01:29:51;;;;;;;3.55;3.25;;;;;;;16.24;77.27;101945.66;7394157;19;20021;-65
2023/09/05 01:32:20;;;;;;;4.40;3.72;;;;;;;16.23;77.04;101957.16;7395791;19;20073;-65
2023/09/05 01:34:50;;;;;;;5.38;3.47;;;;;;;16.19;77.15;101942.25;7393866;19;20010;-65
2023/09/05 01:37:19;;;;;;;3.92;3.38;;;;;;;16.17;77.17;101932.63;7395628;19;20021;-65
2023/09/05 01:39:48;;;;;;;4.80;3.35;;;;;;;16.15;77.60;101937.09;7393942;19;20011;-65
2023/09/05 01:42:19;;;;;;;5.35;3.50;;;;;;;16.11;77.71;101941.59;7395449;19;20021;-65
2023/09/05 01:44:47;;;;;;;5.57;3.60;;;;;;;16.08;77.83;101926.66;7393258;19;20540;-65
2023/09/05 01:47:16;;;;;;;4.60;3.53;;;;;;;16.05;77.97;101923.19;7393691;19;20018;-65
2023/09/05 01:49:44;;;;;;;4.20;3.40;;;;;;;16.01;77.87;101925.09;7395307;19;20082;-65
2023/09/05 01:52:12;;;;;;;5.05;4.00;;;;;;;15.99;77.97;101926.91;7394908;19;20078;-65
2023/09/05 01:54:44;;;;;;;4.18;3.55;;;;;;;15.98;78.20;101924.28;7393457;19;20541;-65
2023/09/05 01:57:18;;;;;;;6.75;3.85;;;;;;;15.95;78.39;101917.31;7394801;19;20390;-65
2023/09/05 01:59:49;;;;;;;5.50;3.85;;;;;;;15.93;78.30;101922.63;7392963;19;20018;-65
2023/09/05 02:02:17;;;;;;;4.20;3.75;;;;;;;15.93;78.69;101921.75;7396359;19;20159;-66
2023/09/05 02:04:46;;;;;;;6.57;3.25;;;;;;;15.90;78.46;101916.56;7396322;19;20018;-66
2023/09/05 02:07:18;;;;;;;5.45;3.70;;;;;;;15.90;78.29;101914.75;7393741;19;20082;-65
2023/09/05 02:09:46;;;;;;;4.53;3.95;;;;;;;15.89;78.49;101920.09;7395206;19;20011;-65
2023/09/05 02:12:15;;;;;;;3.78;3.38;;;;;;;15.88;78.67;101910.41;7394382;19;20422;-65
2023/09/05 02:14:45;;;;;;;4.55;3.55;;;;;;;15.86;78.74;101917.50;7392410;19;20074;-65
2023/09/05 02:17:18;;;;;;;6.65;3.58;;;;;;;15.84;78.66;101916.72;7395015;19;20015;-66
2023/09/05 02:19:46;;;;;;;7.68;4.00;;;;;;;15.84;78.74;101916.72;7392884;19;20028;-65
2023/09/05 02:22:14;;;;;;;4.47;3.55;;;;;;;15.83;78.71;101907.03;7394428;19;20073;-65
2023/09/05 02:24:44;;;;;;;4.60;4.05;;;;;;;15.81;78.66;101909.69;7393264;19;20419;-66
2023/09/05 02:27:12;;;;;;;4.88;3.90;;;;;;;15.80;78.93;101908.78;7391989;19;20014;-65
2023/09/05 02:29:40;;;;;;;5.18;4.15;;;;;;;15.79;78.91;101901.75;7392196;19;20070;-65
2023/09/05 02:32:09;;;;;;;4.07;3.47;;;;;;;15.77;78.89;101894.75;7392120;19;20031;-66
2023/09/05 02:34:40;;;;;;;4.60;4.00;;;;;;;15.75;79.27;101886.88;7392540;19;20419;-66
2023/09/05 02:37:08;;;;;;;6.50;3.70;;;;;;;15.73;78.99;101894.00;7394304;19;20025;-65
2023/09/05 02:39:37;;;;;;;4.00;3.67;;;;;;;15.71;79.43;101893.16;7393386;19;20501;-65
2023/09/05 02:42:06;;;;;;;5.28;3.60;;;;;;;15.70;79.45;101893.22;7391531;19;20163;-65
2023/09/05 02:44:34;;;;;;;5.18;4.47;;;;;;;15.69;79.33;101894.97;7393185;19;20024;-66
2023/09/05 02:47:02;;;;;;;6.93;3.60;;;;;;;15.66;79.26;101886.22;7393913;19;20040;-65
2023/09/05 02:49:31;;;;;;;4.13;3.30;;;;;;;15.64;79.24;101878.34;7393865;19;20090;-66
2023/09/05 02:52:02;;;;;;;5.32;3.88;;;;;;;15.63;79.34;101876.59;7391727;19;20082;-65
2023/09/05 02:54:30;;;;;;;4.28;3.95;;;;;;;15.62;79.32;101881.03;7394850;19;20070;-65
2023/09/05 02:56:59;;;;;;;3.97;3.60;;;;;;;15.64;79.57;101883.63;7400257;19;20484;-65
2023/09/05 02:59:27;;;;;;;4.97;3.83;;;;;;;15.62;79.44;101881.03;7397592;19;20035;-65
2023/09/05 03:01:56;;;;;;;3.90;3.58;;;;;;;15.62;79.53;101877.53;7400621;19;20082;-65
2023/09/05 03:04:32;;;;;;;3.60;3.30;;;;;;;15.61;79.46;101879.28;7397580;19;20074;-66
2023/09/05 03:07:05;;;;;;;4.05;3.60;;;;;;;15.61;79.27;101881.94;7400964;19;20035;-65
2023/09/05 03:09:33;;;;;;;6.63;3.63;;;;;;;15.59;79.57;101875.78;7400515;19;20017;-65
2023/09/05 03:12:01;;;;;;;4.45;3.50;;;;;;;15.59;79.38;101880.22;7400114;19;20087;-65
2023/09/05 03:14:30;;;;;;;5.13;3.38;;;;;;;15.58;79.46;101878.50;7397599;19;20074;-65
2023/09/05 03:16:59;;;;;;;4.55;3.58;;;;;;;15.57;79.68;101879.38;7400044;19;20019;-65
2023/09/05 03:19:28;;;;;;;4.80;3.65;;;;;;;15.56;79.34;101881.19;7400055;19;20015;-65
2023/09/05 03:21:56;;;;;;;4.40;3.63;;;;;;;15.55;79.68;101878.56;7400094;19;20069;-65
2023/09/05 03:24:28;;;;;;;3.97;3.58;;;;;;;15.54;79.63;101876.84;7396887;19;20070;-66
2023/09/05 03:26:57;;;;;;;4.65;3.58;;;;;;;15.52;79.53;101878.63;7399904;19;20365;-65
2023/09/05 03:29:25;;;;;;;6.03;3.97;;;;;;;15.50;79.65;101869.88;7399780;19;20078;-65
2023/09/05 03:31:54;;;;;;;6.70;3.92;;;;;;;15.45;79.84;101867.34;7399644;19;20011;-65
2023/09/05 03:34:23;;;;;;;5.55;3.88;;;;;;;15.43;79.81;101870.03;7396867;19;20014;-66
2023/09/05 03:36:51;;;;;;;6.15;3.97;;;;;;;15.40;80.03;101866.59;7399245;19;20015;-66
2023/09/05 03:39:20;;;;;;;4.22;3.83;;;;;;;15.37;79.94;101870.19;7399124;19;20074;-66
2023/09/05 03:41:51;;;;;;;5.22;4.45;;;;;;;15.33;80.23;101876.44;7398947;19;20031;-66
2023/09/05 03:44:19;;;;;;;8.23;4.55;;;;;;;15.30;80.04;101885.31;7396159;19;20372;-66
2023/09/05 03:46:48;;;;;;;6.45;5.55;;;;;;;15.28;80.31;101880.97;7396563;19;20027;-66
2023/09/05 03:49:16;;;;;;;8.80;5.32;;;;;;;15.26;80.47;101888.06;7399333;19;20019;-67
2023/09/05 03:51:45;;;;;;;6.82;5.55;;;;;;;15.23;80.65;101877.59;7396941;19;20090;-66
2023/09/05 03:54:13;;;;;;;5.53;4.13;;;;;;;15.21;80.79;101885.53;7398835;19;20069;-66
2023/09/05 03:56:42;;;;;;;8.57;5.00;;;;;;;15.19;81.04;101878.53;7396487;19;20077;-65
2023/09/05 03:59:20;;;;;;;4.97;4.03;;;;;;;15.18;80.78;101879.44;7396452;19;20490;-66
2023/09/05 04:01:50;;;;;;;5.60;4.30;;;;;;;15.15;81.26;101877.72;7396600;19;20015;-66
2023/09/05 04:04:18;;;;;;;5.75;4.35;;;;;;;15.13;81.20;101877.78;7398177;19;20014;-66
2023/09/05 04:06:47;;;;;;;6.07;4.93;;;;;;;15.09;81.11;101873.47;7395350;19;20077;-66
2023/09/05 04:09:15;;;;;;;13.35;4.88;;;;;;;15.08;81.40;101882.28;7398925;19;20015;-66
2023/09/05 04:11:43;;;;;;;5.47;4.47;;;;;;;15.05;81.62;101879.72;7396406;19;20027;-66
2023/09/05 04:14:12;;;;;;;8.63;4.47;;;;;;;15.04;81.39;101885.91;7397497;19;20477;-69
2023/09/05 04:16:44;;;;;;;8.40;5.00;;;;;;;15.02;81.57;101887.72;7397504;19;20019;-66
2023/09/05 04:19:13;;;;;;;7.50;5.20;;;;;;;15.02;81.71;101890.34;7396206;19;20022;-66
2023/09/05 04:21:41;;;;;;;7.25;5.13;;;;;;;14.99;81.79;101890.44;7395253;19;20494;-65
2023/09/05 04:24:10;;;;;;;5.93;4.68;;;;;;;14.97;81.76;101892.22;7396745;19;20481;-66
2023/09/05 04:26:38;;;;;;;6.18;4.65;;;;;;;14.96;82.31;101893.13;7397319;19;20376;-66
2023/09/05 04:29:07;;;;;;;8.60;4.72;;;;;;;14.93;82.23;101895.84;7395705;19;20014;-66
2023/09/05 04:31:35;;;;;;;6.20;5.30;;;;;;;14.91;82.16;101892.34;7395490;19;20027;-66
2023/09/05 04:34:07;;;;;;;9.07;5.53;;;;;;;14.89;82.49;101900.31;7395174;19;20011;-66
2023/09/05 04:36:36;;;;;;;11.50;5.22;;;;;;;14.88;82.39;101895.09;7395186;19;20419;-66
2023/09/05 04:39:05;;;;;;;5.93;5.18;;;;;;;14.87;82.64;101898.63;7395158;19;20011;-66
2023/09/05 04:41:33;;;;;;;6.97;5.88;;;;;;;14.84;82.67;101899.56;7394473;19;20502;-66
2023/09/05 04:44:02;;;;;;;6.75;6.05;;;;;;;14.82;82.69;101904.88;7396244;19;20449;-67
2023/09/05 04:46:38;;;;;;;7.32;4.55;;;;;;;14.80;82.92;101895.25;7396601;19;20083;-65
2023/09/05 04:49:10;;;;;;;7.43;5.40;;;;;;;14.80;82.74;101892.59;7395180;19;20042;-66
2023/09/05 04:51:38;;;;;;;6.15;5.13;;;;;;;14.79;82.87;101899.66;7396708;19;20011;-66
2023/09/05 04:54:07;;;;;;;7.85;5.32;;;;;;;14.80;82.95;101895.25;7395805;19;20014;-67
2023/09/05 04:56:36;;;;;;;6.45;5.75;;;;;;;14.81;83.15;101908.41;7395529;19;20381;-66
2023/09/05 04:59:04;;;;;;;7.88;5.60;;;;;;;14.81;82.84;101903.13;7393501;19;20027;-66
2023/09/05 05:01:33;;;;;;;25.75;16.92;;;;;;;14.81;83.19;101911.06;7395370;19;20557;-66
2023/09/05 05:04:01;;;;;;;14.60;11.35;;;;;;;14.80;83.47;101906.66;7395978;19;20026;-65
2023/09/05 05:06:32;;;;;;;8.88;6.43;;;;;;;14.83;83.38;101911.03;7394578;19;20492;-66
2023/09/05 05:09:01;;;;;;;8.88;6.15;;;;;;;14.83;83.26;101916.31;7394910;19;20018;-66
2023/09/05 05:11:29;;;;;;;17.65;15.25;;;;;;;14.85;83.30;101914.50;7393814;19;20027;-65
2023/09/05 05:13:59;;;;;;;12.13;8.95;;;;;;;14.88;83.09;101918.88;7395152;19;20024;-65
2023/09/05 05:16:27;;;;;;;8.35;7.05;;;;;;;14.90;83.51;101922.31;7393322;19;20015;-65
2023/09/05 05:18:56;;;;;;;7.57;5.70;;;;;;;14.91;83.22;101908.22;7395953;19;20018;-66
2023/09/05 05:21:24;;;;;;;8.88;5.55;;;;;;;14.94;83.33;101916.09;7393749;19;20481;-65
2023/09/05 05:23:56;;;;;;;6.47;5.78;;;;;;;14.96;83.27;101917.78;7391069;19;20082;-65
2023/09/05 05:26:24;;;;;;;5.68;5.10;;;;;;;14.98;83.35;101920.41;7392882;19;20027;-65
2023/09/05 05:28:53;;;;;;;6.95;4.88;;;;;;;15.00;83.24;101918.59;7392419;19;20010;-65
2023/09/05 05:31:22;;;;;;;7.18;4.53;;;;;;;15.04;83.03;101925.56;7393293;19;20090;-65
2023/09/05 05:33:50;;;;;;;7.88;5.30;;;;;;;15.05;83.21;101926.41;7393970;19;20014;-65
2023/09/05 05:36:19;;;;;;;7.57;5.40;;;;;;;15.06;83.00;101923.72;7392397;19;20378;-65
2023/09/05 05:38:54;;;;;;;9.88;5.30;;;;;;;15.10;82.91;101927.19;7393855;19;20007;-65
2023/09/05 05:41:26;;;;;;;7.63;5.75;;;;;;;15.13;82.46;101929.78;7393662;19;20015;-66
2023/09/05 05:43:55;;;;;;;6.97;4.88;;;;;;;15.14;82.66;101932.38;7393469;19;20435;-65
2023/09/05 05:46:23;;;;;;;6.10;4.18;;;;;;;15.17;82.31;101930.59;7392422;19;20035;-65
2023/09/05 05:48:52;;;;;;;7.30;4.78;;;;;;;15.19;82.34;101928.75;7395227;19;20019;-64
2023/09/05 05:51:20;;;;;;;7.10;4.85;;;;;;;15.23;82.33;101933.09;7395135;19;20090;-66
2023/09/05 05:53:49;;;;;;;4.53;3.85;;;;;;;15.26;82.20;101928.59;7394895;19;20074;-65
2023/09/05 05:56:17;;;;;;;6.68;4.40;;;;;;;15.30;82.41;101918.81;7392476;19;20380;-65
2023/09/05 05:58:48;;;;;;;12.18;6.00;;;;;;;15.35;82.22;101914.28;7392097;19;20061;-65
2023/09/05 06:01:18;;;;;;;7.70;5.22;;;;;;;15.41;82.08;101908.84;7393019;19;20081;-66
2023/09/05 06:03:46;;;;;;;5.80;5.20;;;;;;;15.45;82.33;101909.66;7394567;19;20020;-65
2023/09/05 06:06:15;;;;;;;6.38;4.22;;;;;;;15.54;82.22;101913.84;7392220;19;20477;-65
2023/09/05 06:08:44;;;;;;;7.18;4.32;;;;;;;15.60;82.18;101908.44;7394026;19;20163;-65
2023/09/05 06:11:12;;;;;;;5.78;4.25;;;;;;;15.67;82.02;101907.38;7394283;19;20368;-65
2023/09/05 06:13:40;;;;;;;4.78;4.20;;;;;;;15.76;81.74;101909.78;7392572;19;20006;-65
2023/09/05 06:16:12;;;;;;;3.75;3.42;;;;;;;15.85;81.79;101907.88;7392234;19;20078;-65
2023/09/05 06:18:41;;;;;;;6.13;4.00;;;;;;;15.94;81.64;101910.28;7392001;19;20078;-66
2023/09/05 06:21:10;;;;;;;5.70;4.00;;;;;;;16.04;81.65;101902.97;7394376;19;20026;-66
2023/09/05 06:23:38;;;;;;;6.65;3.55;;;;;;;16.12;81.24;101900.97;7394067;19;20023;-66
2023/09/05 06:26:07;;;;;;;5.18;4.10;;;;;;;16.23;80.78;101903.34;7391606;19;20387;-66
2023/09/05 06:28:35;;;;;;;5.63;3.28;;;;;;;16.32;80.92;101899.56;7394606;19;20082;-66
2023/09/05 06:31:04;;;;;;;4.65;3.75;;;;;;;16.40;80.68;101898.47;7401343;19;20015;-67
2023/09/05 06:33:35;;;;;;;3.45;3.00;;;;;;;16.52;80.16;101891.06;7400946;19;20031;-66
2023/09/05 06:36:07;;;;;;;3.70;3.25;;;;;;;16.62;79.92;101889.91;7398723;19;20023;-66
2023/09/05 06:38:36;;;;;;;5.32;3.25;;;;;;;16.72;79.71;101888.72;7398673;19;20018;-65
2023/09/05 06:41:08;;;;;;;3.97;3.42;;;;;;;16.83;79.75;101888.38;7397996;19;20019;-65
2023/09/05 06:43:37;;;;;;;6.50;3.30;;;;;;;16.94;79.30;101890.75;7400427;19;20505;-67
2023/09/05 06:46:05;;;;;;;4.75;2.92;;;;;;;17.04;78.59;101894.84;7398352;19;20078;-66
2023/09/05 06:48:37;;;;;;;5.90;3.53;;;;;;;17.15;78.22;101891.00;7400681;19;20078;-67
2023/09/05 06:51:06;;;;;;;4.75;3.33;;;;;;;17.24;78.24;101896.88;7400968;19;20018;-68
2023/09/05 06:53:35;;;;;;;4.10;3.08;;;;;;;17.33;77.57;101901.03;7398766;19;20014;-66
2023/09/05 06:56:05;;;;;;;5.88;3.38;;;;;;;17.41;77.49;101899.03;7397835;19;20090;-66
2023/09/05 06:58:33;;;;;;;5.85;2.97;;;;;;;17.49;77.09;101896.13;7399697;19;20410;-66
2023/09/05 07:01:07;;;;;;;3.00;2.70;;;;;;;17.57;76.82;101894.06;7397762;19;20020;-66
2023/09/05 07:03:38;;;;;;;4.28;3.03;;;;;;;17.66;76.21;101895.56;7398103;19;20010;-65
2023/09/05 07:06:07;;;;;;;6.20;3.30;;;;;;;17.75;75.70;101892.59;7397538;19;20007;-65
2023/09/05 07:08:35;;;;;;;5.22;3.58;;;;;;;17.84;75.76;101890.53;7397707;19;20078;-66
2023/09/05 07:11:04;;;;;;;3.45;3.13;;;;;;;17.93;74.89;101898.19;7397391;19;20074;-66
2023/09/05 07:13:33;;;;;;;5.40;3.03;;;;;;;18.03;74.30;101893.47;7399495;19;20014;-65
2023/09/05 07:16:01;;;;;;;5.72;3.35;;;;;;;18.13;74.22;101900.19;7397414;19;20018;-66
2023/09/05 07:18:29;;;;;;;2.70;2.45;;;;;;;18.23;73.48;101892.75;7399601;19;20015;-66
2023/09/05 07:21:00;;;;;;;3.67;2.47;;;;;;;18.34;72.83;101895.06;7399625;19;20006;-66
2023/09/05 07:23:29;;;;;;;4.00;2.50;;;;;;;18.43;72.15;101901.81;7399401;19;20494;-66
2023/09/05 07:25:57;;;;;;;4.32;2.60;;;;;;;18.55;71.31;101901.34;7397297;19;20027;-65
2023/09/05 07:28:26;;;;;;;3.55;2.03;;;;;;;18.64;70.54;101895.72;7399065;19;20018;-65
2023/09/05 07:30:54;;;;;;;8.60;3.40;;;;;;;18.78;69.93;101899.63;7399572;19;20090;-65
2023/09/05 07:33:23;;;;;;;4.53;2.72;;;;;;;18.86;69.15;101900.22;7396444;19;20077;-65
2023/09/05 07:35:51;;;;;;;2.83;2.20;;;;;;;18.96;69.09;101906.06;7396456;19;20011;-65
2023/09/05 07:38:23;;;;;;;3.70;2.22;;;;;;;19.04;67.98;101904.84;7397074;19;20070;-66
2023/09/05 07:41:06;;;;;;;3.42;2.60;;;;;;;19.14;67.92;101908.00;7398882;19;20011;-65
2023/09/05 07:43:35;;;;;;;6.63;3.13;;;;;;;19.20;67.47;101899.78;7399241;19;20007;-64
2023/09/05 07:46:03;;;;;;;3.75;2.88;;;;;;;19.26;67.08;101914.66;7396453;19;20010;-67
2023/09/05 07:48:32;;;;;;;4.65;2.17;;;;;;;19.33;66.55;101915.25;7396308;19;20028;-65
2023/09/05 07:51:05;;;;;;;2.40;1.85;;;;;;;19.40;65.96;101922.09;7395634;19;20414;-65
2023/09/05 07:53:37;;;;;;;3.73;2.20;;;;;;;19.47;66.12;101928.00;7395978;19;20027;-65
2023/09/05 07:56:07;;;;;;;3.38;1.98;;;;;;;19.52;65.42;101921.59;7396046;19;20015;-65
2023/09/05 07:58:35;;;;;;;2.70;2.08;;;;;;;19.61;65.36;101920.31;7397378;19;20018;-66
2023/09/05 08:01:09;;;;;;;2.92;2.20;;;;;;;19.65;65.13;101921.94;7395844;19;20513;-65
2023/09/05 08:03:38;;;;;;;3.47;2.13;;;;;;;19.70;64.47;101917.28;7397813;19;20082;-65
2023/09/05 08:06:07;;;;;;;5.03;2.50;;;;;;;19.74;64.29;101920.69;7394990;19;20014;-65
2023/09/05 08:08:38;;;;;;;4.10;2.22;;;;;;;19.81;63.98;101921.28;7396769;19;20494;-66
2023/09/05 08:11:06;;;;;;;3.40;1.95;;;;;;;19.86;63.82;101914.88;7396978;19;20013;-65
2023/09/05 08:13:35;;;;;;;2.50;2.10;;;;;;;19.92;63.75;101916.41;7397617;19;20027;-65
2023/09/05 08:16:05;;;;;;;2.63;2.30;;;;;;;19.99;63.48;101909.91;7394534;19;20014;-65
2023/09/05 08:18:33;;;;;;;2.72;2.00;;;;;;;20.06;63.01;101912.31;7397108;19;20021;-65
2023/09/05 08:21:04;;;;;;;2.38;2.00;;;;;;;20.13;62.81;101919.09;7397760;19;20049;-65
2023/09/05 08:23:33;;;;;;;9.75;2.10;;;;;;;20.18;62.89;101917.06;7397910;19;20038;-65
2023/09/05 08:26:04;;;;;;;3.33;2.30;;;;;;;20.24;62.24;101915.97;7395225;19;20481;-65
2023/09/05 08:28:35;;;;;;;2.53;1.90;;;;;;;20.30;62.06;101924.53;7396816;19;20506;-66
2023/09/05 08:31:04;;;;;;;4.05;1.83;;;;;;;20.35;62.22;101927.00;7395227;19;20503;-66
2023/09/05 08:33:32;;;;;;;2.53;1.77;;;;;;;20.42;61.66;101923.16;7397228;19;20015;-65
2023/09/05 08:36:01;;;;;;;3.55;1.95;;;;;;;20.48;61.21;101932.66;7394189;19;20354;-66
2023/09/05 08:38:29;;;;;;;3.13;2.25;;;;;;;20.56;61.19;101924.31;7394416;19;20505;-66
2023/09/05 08:41:04;;;;;;;3.50;1.45;;;;;;;20.63;60.86;101923.09;7396651;19;20019;-65
2023/09/05 08:43:33;;;;;;;4.72;1.73;;;;;;;20.71;60.82;101922.78;7397145;19;20031;-65
2023/09/05 08:46:04;;;;;;;2.03;1.58;;;;;;;20.80;59.89;101927.69;7394805;19;20031;-65
2023/09/05 08:48:33;;;;;;;2.20;1.58;;;;;;;20.88;59.35;101930.88;7396345;19;20042;-65
2023/09/05 08:51:02;;;;;;;3.35;2.35;;;;;;;20.97;59.37;101927.78;7393815;19;20031;-66
2023/09/05 08:53:37;;;;;;;2.88;1.40;;;;;;;21.05;58.86;101929.22;7393255;19;20014;-66
2023/09/05 08:56:10;;;;;;;2.22;1.50;;;;;;;21.13;57.69;101925.25;7394489;19;20007;-66
2023/09/05 08:58:40;;;;;;;4.70;2.25;;;;;;;21.24;57.85;101922.06;7395773;19;20006;-66
2023/09/05 09:01:16;;;;;;;3.70;1.80;;;;;;;21.31;57.69;101902.13;7393884;19;20085;-66
2023/09/05 09:03:44;;;;;;;2.28;1.58;;;;;;;21.38;58.06;101905.41;7396302;19;20007;-66
2023/09/05 09:06:13;;;;;;;1.85;1.58;;;;;;;21.46;57.39;101908.53;7394096;19;20379;-66
2023/09/05 09:08:44;;;;;;;3.70;2.30;;;;;;;21.54;57.64;101904.63;7395223;19;20006;-66
2023/09/05 09:11:15;;;;;;;2.20;1.70;;;;;;;21.62;56.63;101894.44;7396150;19;20014;-66
2023/09/05 09:13:43;;;;;;;2.47;1.70;;;;;;;21.72;56.30;101902.88;7395622;19;20010;-65
2023/09/05 09:16:12;;;;;;;5.25;1.77;;;;;;;21.85;56.27;101903.09;7393750;19;20010;-66
2023/09/05 09:18:41;;;;;;;1.85;1.45;;;;;;;21.95;55.67;101888.31;7395786;19;20023;-66
2023/09/05 09:21:10;;;;;;;3.33;2.25;;;;;;;22.04;54.92;101890.53;7393559;19;20026;-66
2023/09/05 09:23:40;;;;;;;3.10;1.90;;;;;;;22.12;55.32;101882.13;7394567;19;20034;-66
2023/09/05 09:26:10;;;;;;;2.40;1.60;;;;;;;22.19;55.16;101885.31;7393097;19;20084;-67
2023/09/05 09:28:41;;;;;;;2.13;1.50;;;;;;;22.26;54.66;101879.56;7393198;19;20014;-67
2023/09/05 09:31:13;;;;;;;1.77;1.40;;;;;;;22.35;54.37;101867.53;7395049;19;20014;-67
2023/09/05 09:33:43;;;;;;;3.63;1.77;;;;;;;22.46;54.30;101875.00;7395598;19;20014;-67
2023/09/05 09:36:13;;;;;;;3.83;1.98;;;;;;;22.52;53.46;101861.31;7393029;19;20022;-67
2023/09/05 09:38:43;;;;;;;3.42;1.73;;;;;;;22.59;53.20;101859.16;7394525;19;20426;-68
2023/09/05 09:41:14;;;;;;;4.00;1.88;;;;;;;22.65;52.87;101857.97;7392830;19;20006;-66
2023/09/05 09:43:45;;;;;;;1.95;1.75;;;;;;;22.71;51.76;101855.81;7398725;19;20042;-66
2023/09/05 09:46:13;;;;;;;2.25;1.90;;;;;;;22.77;52.54;101857.25;7396292;19;20035;-66
2023/09/05 09:48:45;;;;;;;3.65;1.80;;;;;;;22.83;52.21;101856.91;7393004;19;20007;-67
2023/09/05 09:51:15;;;;;;;2.30;1.60;;;;;;;22.89;52.20;101858.41;7394904;19;20019;-67
2023/09/05 09:53:47;;;;;;;4.03;1.48;;;;;;;22.97;52.00;101852.63;7394783;19;20010;-67
2023/09/05 09:56:20;;;;;;;2.90;1.53;;;;;;;23.03;52.00;101852.28;7393040;19;20070;-67
2023/09/05 09:58:56;;;;;;;2.72;1.52;;;;;;;23.09;51.72;101860.81;7394438;19;20354;-67
2023/09/05 10:01:26;;;;;;;2.72;1.85;;;;;;;23.16;51.89;101858.66;7392759;19;20022;-67
2023/09/05 10:03:56;;;;;;;1.92;1.55;;;;;;;23.22;51.54;101855.63;7396207;19;20426;-66
2023/09/05 10:06:26;;;;;;;1.90;1.20;;;;;;;23.29;50.94;101852.59;7399034;19;20074;-66
2023/09/05 10:08:55;;;;;;;2.85;1.35;;;;;;;23.34;50.75;101839.81;7399124;19;20027;-67
2023/09/05 10:11:24;;;;;;;1.90;1.30;;;;;;;23.38;51.01;101842.22;7401067;19;20348;-66
2023/09/05 10:13:57;;;;;;;2.15;1.35;;;;;;;23.46;50.78;101841.78;7399444;19;20018;-66
2023/09/05 10:16:26;;;;;;;2.38;1.70;;;;;;;23.52;50.08;101845.88;7398306;19;20379;-66
2023/09/05 10:18:57;;;;;;;2.28;1.50;;;;;;;23.56;50.48;101853.66;7401459;19;20014;-68
2023/09/05 10:21:26;;;;;;;2.92;1.42;;;;;;;23.61;49.80;101844.47;7401528;19;20481;-67
2023/09/05 10:23:55;;;;;;;2.88;1.60;;;;;;;23.66;49.73;101845.94;7401913;19;20023;-67
2023/09/05 10:26:25;;;;;;;3.78;1.52;;;;;;;23.71;50.13;101841.16;7398146;19;20490;-66
2023/09/05 10:28:58;;;;;;;3.03;1.30;;;;;;;23.75;49.94;101833.81;7400548;19;20454;-66
2023/09/05 10:31:27;;;;;;;2.60;1.83;;;;;;;23.78;49.51;101820.22;7399011;19;20011;-66
2023/09/05 10:33:56;;;;;;;2.60;1.85;;;;;;;23.83;50.15;101820.78;7398392;19;20481;-66
2023/09/05 10:36:46;;;;;;;2.70;1.92;;;;;;;23.92;49.97;101830.13;7398035;19;20500;-66
2023/09/05 10:39:36;;;;;;;3.53;1.58;;;;;;;23.98;49.26;101818.19;7398385;19;20481;-67
2023/09/05 10:42:05;;;;;;;2.50;1.75;;;;;;;24.04;49.43;101815.97;7401360;19;20027;-67
2023/09/05 10:44:36;;;;;;;2.92;1.40;;;;;;;24.12;49.62;101811.97;7398389;19;20011;-67
2023/09/05 10:47:29;;;;;;;3.53;1.48;;;;;;;24.17;49.13;101805.34;7401725;19;20023;-67
2023/09/05 10:50:01;;;;;;;6.70;1.53;;;;;;;24.19;48.94;101800.75;7401206;19;20054;-68
2023/09/05 10:52:30;;;;;;;1.80;1.45;;;;;;;24.27;48.97;101804.78;7400677;19;20073;-67
2023/09/05 10:54:59;;;;;;;3.25;1.58;;;;;;;24.33;48.64;101797.19;7398856;19;20078;-68
2023/09/05 10:57:42;;;;;;;1.95;1.38;;;;;;;24.40;48.41;101800.34;7399442;19;20034;-67
2023/09/05 11:00:38;;;;;;;2.65;1.33;;;;;;;24.45;47.90;101805.44;7397472;19;20007;-68
2023/09/05 11:03:16;;;;;;;1.30;1.10;;;;;;;24.50;48.24;101804.16;7397322;19;20014;-68
2023/09/05 11:05:45;;;;;;;2.22;1.10;;;;;;;24.59;47.91;101797.34;7398316;19;20070;-67
2023/09/05 11:08:24;;;;;;;1.85;1.30;;;;;;;24.69;47.09;101792.28;7397606;19;20027;-66
2023/09/05 11:10:55;;;;;;;2.20;1.80;;;;;;;24.80;47.15;101791.59;7398613;19;20019;-66
2023/09/05 11:13:23;;;;;;;2.60;1.58;;;;;;;24.86;46.72;101784.00;7399954;19;20022;-66
2023/09/05 11:16:01;;;;;;;1.80;1.33;;;;;;;24.94;46.75;101785.31;7395349;19;20026;-65
2023/09/05 11:18:30;;;;;;;1.92;1.20;;;;;;;25.01;46.37;101786.59;7397626;19;20445;-66
2023/09/05 11:20:59;;;;;;;2.85;1.35;;;;;;;25.09;46.52;101778.06;7399295;19;20026;-66
2023/09/05 11:23:29;;;;;;;2.40;1.63;;;;;;;25.14;46.31;101776.78;7396434;19;20086;-67
2023/09/05 11:26:00;;;;;;;1.90;1.40;;;;;;;25.23;46.18;101785.19;7395804;19;20363;-66
2023/09/05 11:28:28;;;;;;;3.17;1.35;;;;;;;25.27;46.19;101782.16;7400877;19;20010;-66
2023/09/05 11:31:03;;;;;;;4.97;1.83;;;;;;;25.33;46.03;101783.59;7396621;19;20477;-66
2023/09/05 11:33:34;;;;;;;1.88;1.67;;;;;;;25.40;45.75;101776.00;7398970;19;20017;-66
2023/09/05 11:36:07;;;;;;;1.92;1.60;;;;;;;25.45;45.60;101766.69;7396552;19;20113;-66
2023/09/05 11:38:55;;;;;;;1.73;1.33;;;;;;;25.52;44.39;101762.59;7397450;19;20014;-66